sensor_id;sensor_type;location;lat;lon;timestamp;pressure;altitude;pressure_sealevel;temperature
71897;BMP280;59767;51.344;12.362;2023-03-24T00:01:00;161943.94;;;12.80
71897;BMP280;59767;51.344;12.362;2023-03-24T00:04:05;161960.94;;;12.86
71897;BMP280;59767;51.344;12.362;2023-03-24T00:07:09;161995.00;;;12.99
71897;BMP280;59767;51.344;12.362;2023-03-24T00:10:18;162004.19;;;13.03
71897;BMP280;59767;51.344;12.362;2023-03-24T00:13:23;161996.31;;;13.00
71897;BMP280;59767;51.344;12.362;2023-03-24T00:16:27;161992.38;;;12.98
71897;BMP280;59767;51.344;12.362;2023-03-24T00:19:31;161988.50;;;12.97
71897;BMP280;59767;51.344;12.362;2023-03-24T00:22:37;161991.09;;;12.98
71897;BMP280;59767;51.344;12.362;2023-03-24T00:25:44;161967.53;;;12.89
71897;BMP280;59767;51.344;12.362;2023-03-24T00:28:52;161960.94;;;12.86
71897;BMP280;59767;51.344;12.362;2023-03-24T00:31:56;161954.44;;;12.84
71897;BMP280;59767;51.344;12.362;2023-03-24T00:34:59;161936.06;;;12.77
71897;BMP280;59767;51.344;12.362;2023-03-24T00:38:03;161937.41;;;12.77
71897;BMP280;59767;51.344;12.362;2023-03-24T00:41:08;161928.19;;;12.74
71897;BMP280;59767;51.344;12.362;2023-03-24T00:44:14;161922.97;;;12.72
71897;BMP280;59767;51.344;12.362;2023-03-24T00:47:21;161919.09;;;12.70
71897;BMP280;59767;51.344;12.362;2023-03-24T00:50:29;161922.97;;;12.72
71897;BMP280;59767;51.344;12.362;2023-03-24T00:53:36;161916.44;;;12.69
71897;BMP280;59767;51.344;12.362;2023-03-24T00:56:40;161936.06;;;12.77
71897;BMP280;59767;51.344;12.362;2023-03-24T00:59:47;161928.19;;;12.74
71897;BMP280;59767;51.344;12.362;2023-03-24T01:02:55;161938.75;;;12.78
71897;BMP280;59767;51.344;12.362;2023-03-24T01:06:00;161930.84;;;12.75
71897;BMP280;59767;51.344;12.362;2023-03-24T01:09:07;161922.97;;;12.72
71897;BMP280;59767;51.344;12.362;2023-03-24T01:12:11;161912.50;;;12.68
71897;BMP280;59767;51.344;12.362;2023-03-24T01:15:17;161913.84;;;12.68
71897;BMP280;59767;51.344;12.362;2023-03-24T01:18:21;161932.13;;;12.75
71897;BMP280;59767;51.344;12.362;2023-03-24T01:21:28;161936.06;;;12.77
71897;BMP280;59767;51.344;12.362;2023-03-24T01:24:32;161933.47;;;12.76
71897;BMP280;59767;51.344;12.362;2023-03-24T01:27:36;161938.75;;;12.78
71897;BMP280;59767;51.344;12.362;2023-03-24T01:30:40;161949.16;;;12.82
71897;BMP280;59767;51.344;12.362;2023-03-24T01:33:44;161947.88;;;12.81
71897;BMP280;59767;51.344;12.362;2023-03-24T01:36:51;161942.63;;;12.79
71897;BMP280;59767;51.344;12.362;2023-03-24T01:39:55;161970.13;;;12.90
71897;BMP280;59767;51.344;12.362;2023-03-24T01:42:59;161955.75;;;12.84
71897;BMP280;59767;51.344;12.362;2023-03-24T01:49:08;161996.31;;;13.00
71897;BMP280;59767;51.344;12.362;2023-03-24T01:52:13;161977.97;;;12.93
71897;BMP280;59767;51.344;12.362;2023-03-24T01:55:17;161984.56;;;12.95
71897;BMP280;59767;51.344;12.362;2023-03-24T01:58:23;161998.94;;;13.01
71897;BMP280;59767;51.344;12.362;2023-03-24T02:01:28;161992.38;;;12.98
71897;BMP280;59767;51.344;12.362;2023-03-24T02:04:38;162012.03;;;13.06
71897;BMP280;59767;51.344;12.362;2023-03-24T02:10:47;162014.69;;;13.07
71897;BMP280;59767;51.344;12.362;2023-03-24T02:13:52;162009.41;;;13.05
71897;BMP280;59767;51.344;12.362;2023-03-24T02:17:12;162029.06;;;13.12
71897;BMP280;59767;51.344;12.362;2023-03-24T02:33:18;162046.09;;;13.19
71897;BMP280;59767;51.344;12.362;2023-03-24T02:46:06;161983.22;;;12.95
71897;BMP280;59767;51.344;12.362;2023-03-24T02:49:30;161959.66;;;12.86
71897;BMP280;59767;51.344;12.362;2023-03-24T02:56:09;161942.63;;;12.79
71897;BMP280;59767;51.344;12.362;2023-03-24T02:59:16;161922.97;;;12.72
71897;BMP280;59767;51.344;12.362;2023-03-24T03:02:22;161916.44;;;12.69
71897;BMP280;59767;51.344;12.362;2023-03-24T03:05:30;161913.84;;;12.68
71897;BMP280;59767;51.344;12.362;2023-03-24T03:08:37;161912.50;;;12.68
71897;BMP280;59767;51.344;12.362;2023-03-24T03:11:42;161899.41;;;12.63
71897;BMP280;59767;51.344;12.362;2023-03-24T03:14:50;161900.75;;;12.63
71897;BMP280;59767;51.344;12.362;2023-03-24T03:17:57;161907.25;;;12.66
71897;BMP280;59767;51.344;12.362;2023-03-24T03:21:07;161896.81;;;12.62
71897;BMP280;59767;51.344;12.362;2023-03-24T03:24:16;161886.31;;;12.58
71897;BMP280;59767;51.344;12.362;2023-03-24T03:27:23;161892.88;;;12.60
71897;BMP280;59767;51.344;12.362;2023-03-24T03:30:37;161909.91;;;12.67
71897;BMP280;59767;51.344;12.362;2023-03-24T03:33:49;161905.97;;;12.65
71897;BMP280;59767;51.344;12.362;2023-03-24T03:40:09;161913.84;;;12.68
71897;BMP280;59767;51.344;12.362;2023-03-24T03:43:15;161909.91;;;12.67
71897;BMP280;59767;51.344;12.362;2023-03-24T03:46:19;161894.19;;;12.61
71897;BMP280;59767;51.344;12.362;2023-03-24T03:49:23;161922.97;;;12.72
71897;BMP280;59767;51.344;12.362;2023-03-24T03:52:28;161930.84;;;12.75
71897;BMP280;59767;51.344;12.362;2023-03-24T03:55:33;161913.84;;;12.68
71897;BMP280;59767;51.344;12.362;2023-03-24T03:58:38;161912.50;;;12.68
71897;BMP280;59767;51.344;12.362;2023-03-24T04:01:45;161907.25;;;12.66
71897;BMP280;59767;51.344;12.362;2023-03-24T04:24:17;161980.63;;;12.94
71897;BMP280;59767;51.344;12.362;2023-03-24T04:27:41;161984.56;;;12.95
71897;BMP280;59767;51.344;12.362;2023-03-24T04:30:50;161988.50;;;12.97
71897;BMP280;59767;51.344;12.362;2023-03-24T04:37:24;161989.81;;;12.97
71897;BMP280;59767;51.344;12.362;2023-03-24T04:40:32;162005.53;;;13.03
71897;BMP280;59767;51.344;12.362;2023-03-24T04:43:37;161993.72;;;12.99
71897;BMP280;59767;51.344;12.362;2023-03-24T04:46:42;162012.03;;;13.06
71897;BMP280;59767;51.344;12.362;2023-03-24T04:49:46;162012.03;;;13.06
71897;BMP280;59767;51.344;12.362;2023-03-24T04:52:49;162002.88;;;13.02
71897;BMP280;59767;51.344;12.362;2023-03-24T04:59:18;161997.66;;;13.00
71897;BMP280;59767;51.344;12.362;2023-03-24T05:02:23;161993.72;;;12.99
71897;BMP280;59767;51.344;12.362;2023-03-24T05:05:26;161995.00;;;12.99
71897;BMP280;59767;51.344;12.362;2023-03-24T05:08:31;162012.03;;;13.06
71897;BMP280;59767;51.344;12.362;2023-03-24T05:11:35;162017.28;;;13.08
71897;BMP280;59767;51.344;12.362;2023-03-24T05:14:40;162022.56;;;13.10
71897;BMP280;59767;51.344;12.362;2023-03-24T05:17:44;162026.44;;;13.11
71897;BMP280;59767;51.344;12.362;2023-03-24T05:20:48;162004.19;;;13.03
71897;BMP280;59767;51.344;12.362;2023-03-24T05:23:52;162031.66;;;13.13
71897;BMP280;59767;51.344;12.362;2023-03-24T05:26:56;162030.38;;;13.13
71897;BMP280;59767;51.344;12.362;2023-03-24T05:30:00;162035.59;;;13.15
71897;BMP280;59767;51.344;12.362;2023-03-24T05:33:04;162035.59;;;13.15
71897;BMP280;59767;51.344;12.362;2023-03-24T05:36:09;162046.09;;;13.19
71897;BMP280;59767;51.344;12.362;2023-03-24T05:39:13;162030.38;;;13.13
71897;BMP280;59767;51.344;12.362;2023-03-24T05:42:17;162034.31;;;13.14
71897;BMP280;59767;51.344;12.362;2023-03-24T05:45:22;162046.09;;;13.19
71897;BMP280;59767;51.344;12.362;2023-03-24T05:48:27;162036.94;;;13.15
71897;BMP280;59767;51.344;12.362;2023-03-24T05:51:31;162050.03;;;13.20
71897;BMP280;59767;51.344;12.362;2023-03-24T05:54:35;162040.88;;;13.17
71897;BMP280;59767;51.344;12.362;2023-03-24T05:57:42;162038.25;;;13.16
71897;BMP280;59767;51.344;12.362;2023-03-24T06:00:46;162050.03;;;13.20
71897;BMP280;59767;51.344;12.362;2023-03-24T06:03:50;162069.66;;;13.28
71897;BMP280;59767;51.344;12.362;2023-03-24T06:06:58;162078.84;;;13.31
71897;BMP280;59767;51.344;12.362;2023-03-24T06:10:02;162101.13;;;13.40
71897;BMP280;59767;51.344;12.362;2023-03-24T06:13:06;162112.91;;;13.44
71897;BMP280;59767;51.344;12.362;2023-03-24T06:16:11;162145.66;;;13.57
71897;BMP280;59767;51.344;12.362;2023-03-24T06:19:15;162127.28;;;13.50
71897;BMP280;59767;51.344;12.362;2023-03-24T06:22:20;162148.25;;;13.58
71897;BMP280;59767;51.344;12.362;2023-03-24T06:25:24;162154.84;;;13.60
71897;BMP280;59767;51.344;12.362;2023-03-24T06:28:30;162166.63;;;13.65
71897;BMP280;59767;51.344;12.362;2023-03-24T06:31:37;162175.78;;;13.68
71897;BMP280;59767;51.344;12.362;2023-03-24T06:34:41;162203.31;;;13.79
71897;BMP280;59767;51.344;12.362;2023-03-24T06:37:44;162207.19;;;13.80
71897;BMP280;59767;51.344;12.362;2023-03-24T06:40:49;162213.81;;;13.83
71897;BMP280;59767;51.344;12.362;2023-03-24T06:43:53;162271.44;;;14.05
71897;BMP280;59767;51.344;12.362;2023-03-24T06:46:57;162348.72;;;14.34
71897;BMP280;59767;51.344;12.362;2023-03-24T06:50:02;162410.31;;;14.58
71897;BMP280;59767;51.344;12.362;2023-03-24T06:53:06;162428.69;;;14.65
71897;BMP280;59767;51.344;12.362;2023-03-24T06:56:10;162571.53;;;15.19
71897;BMP280;59767;51.344;12.362;2023-03-24T06:59:20;162645.00;;;15.47
71897;BMP280;59767;51.344;12.362;2023-03-24T07:02:26;162706.63;;;15.71
71897;BMP280;59767;51.344;12.362;2023-03-24T07:05:37;162652.88;;;15.50
71897;BMP280;59767;51.344;12.362;2023-03-24T07:08:41;162648.94;;;15.49
71897;BMP280;59767;51.344;12.362;2023-03-24T07:11:45;162580.75;;;15.23
71897;BMP280;59767;51.344;12.362;2023-03-24T07:14:49;162542.69;;;15.08
71897;BMP280;59767;51.344;12.362;2023-03-24T07:17:53;162509.97;;;14.96
71897;BMP280;59767;51.344;12.362;2023-03-24T07:20:58;162485.03;;;14.86
71897;BMP280;59767;51.344;12.362;2023-03-24T07:24:02;162490.31;;;14.88
71897;BMP280;59767;51.344;12.362;2023-03-24T07:27:06;162507.34;;;14.95
71897;BMP280;59767;51.344;12.362;2023-03-24T07:30:11;162486.38;;;14.87
71897;BMP280;59767;51.344;12.362;2023-03-24T07:33:15;162496.81;;;14.91
71897;BMP280;59767;51.344;12.362;2023-03-24T07:36:19;162537.53;;;15.06
71897;BMP280;59767;51.344;12.362;2023-03-24T07:39:23;162579.47;;;15.22
71897;BMP280;59767;51.344;12.362;2023-03-24T07:42:27;162591.25;;;15.27
71897;BMP280;59767;51.344;12.362;2023-03-24T07:45:31;162612.25;;;15.35
71897;BMP280;59767;51.344;12.362;2023-03-24T07:48:35;162603.03;;;15.31
71897;BMP280;59767;51.344;12.362;2023-03-24T07:51:39;162589.91;;;15.26
71897;BMP280;59767;51.344;12.362;2023-03-24T07:54:46;162567.63;;;15.18
71897;BMP280;59767;51.344;12.362;2023-03-24T07:57:50;162559.75;;;15.15
71897;BMP280;59767;51.344;12.362;2023-03-24T08:00:53;162536.19;;;15.06
71897;BMP280;59767;51.344;12.362;2023-03-24T08:03:58;162562.41;;;15.16
71897;BMP280;59767;51.344;12.362;2023-03-24T08:07:02;162582.09;;;15.23
71897;BMP280;59767;51.344;12.362;2023-03-24T08:10:09;162585.97;;;15.25
71897;BMP280;59767;51.344;12.362;2023-03-24T08:13:13;162595.19;;;15.28
71897;BMP280;59767;51.344;12.362;2023-03-24T08:16:17;162589.91;;;15.26
71897;BMP280;59767;51.344;12.362;2023-03-24T08:19:21;162589.91;;;15.26
71897;BMP280;59767;51.344;12.362;2023-03-24T08:22:25;162608.31;;;15.33
71897;BMP280;59767;51.344;12.362;2023-03-24T08:25:30;162627.94;;;15.41
71897;BMP280;59767;51.344;12.362;2023-03-24T08:28:33;162645.00;;;15.47
71897;BMP280;59767;51.344;12.362;2023-03-24T08:31:37;162647.59;;;15.48
71897;BMP280;59767;51.344;12.362;2023-03-24T08:34:41;162658.09;;;15.52
71897;BMP280;59767;51.344;12.362;2023-03-24T08:37:45;162696.16;;;15.67
71897;BMP280;59767;51.344;12.362;2023-03-24T08:40:49;162730.19;;;15.80
71897;BMP280;59767;51.344;12.362;2023-03-24T08:43:54;162766.94;;;15.94
71897;BMP280;59767;51.344;12.362;2023-03-24T08:46:59;162780.06;;;15.99
71897;BMP280;59767;51.344;12.362;2023-03-24T08:50:04;162793.19;;;16.04
71897;BMP280;59767;51.344;12.362;2023-03-24T08:53:09;162816.81;;;16.13
71897;BMP280;59767;51.344;12.362;2023-03-24T08:56:14;162843.00;;;16.23
71897;BMP280;59767;51.344;12.362;2023-03-24T08:59:18;162844.31;;;16.23
71897;BMP280;59767;51.344;12.362;2023-03-24T09:02:22;162866.63;;;16.32
71897;BMP280;59767;51.344;12.362;2023-03-24T09:05:26;162908.56;;;16.48
71897;BMP280;59767;51.344;12.362;2023-03-24T09:08:47;162909.91;;;16.48
71897;BMP280;59767;51.344;12.362;2023-03-24T09:11:51;162929.56;;;16.56
71897;BMP280;59767;51.344;12.362;2023-03-24T09:14:55;162954.50;;;16.65
71897;BMP280;59767;51.344;12.362;2023-03-24T09:17:58;162946.59;;;16.62
71897;BMP280;59767;51.344;12.362;2023-03-24T09:21:03;162924.34;;;16.54
71897;BMP280;59767;51.344;12.362;2023-03-24T09:24:08;162955.81;;;16.66
71897;BMP280;59767;51.344;12.362;2023-03-24T09:27:12;162941.41;;;16.60
71897;BMP280;59767;51.344;12.362;2023-03-24T09:30:16;162972.84;;;16.72
71897;BMP280;59767;51.344;12.362;2023-03-24T09:33:20;163060.78;;;17.06
71897;BMP280;59767;51.344;12.362;2023-03-24T09:36:25;163121.09;;;17.29
71897;BMP280;59767;51.344;12.362;2023-03-24T09:39:30;163119.81;;;17.28
71897;BMP280;59767;51.344;12.362;2023-03-24T09:42:36;163130.28;;;17.32
71897;BMP280;59767;51.344;12.362;2023-03-24T09:45:47;163138.19;;;17.35
71897;BMP280;59767;51.344;12.362;2023-03-24T09:48:54;163168.34;;;17.47
71897;BMP280;59767;51.344;12.362;2023-03-24T09:52:02;163211.69;;;17.63
71897;BMP280;59767;51.344;12.362;2023-03-24T09:55:10;163317.97;;;18.04
71897;BMP280;59767;51.344;12.362;2023-03-24T09:58:17;163354.69;;;18.18
71897;BMP280;59767;51.344;12.362;2023-03-24T10:01:21;163345.50;;;18.14
71897;BMP280;59767;51.344;12.362;2023-03-24T10:04:26;163253.59;;;17.79
71897;BMP280;59767;51.344;12.362;2023-03-24T10:07:32;163219.53;;;17.66
71897;BMP280;59767;51.344;12.362;2023-03-24T10:10:47;163216.88;;;17.65
71897;BMP280;59767;51.344;12.362;2023-03-24T10:17:02;163202.47;;;17.60
71897;BMP280;59767;51.344;12.362;2023-03-24T10:30:07;163252.31;;;17.79
71897;BMP280;59767;51.344;12.362;2023-03-24T10:33:14;163279.88;;;17.89
71897;BMP280;59767;51.344;12.362;2023-03-24T10:36:19;163268.06;;;17.85
71897;BMP280;59767;51.344;12.362;2023-03-24T10:39:23;163307.47;;;18.00
71897;BMP280;59767;51.344;12.362;2023-03-24T10:42:40;163361.31;;;18.20
71897;BMP280;59767;51.344;12.362;2023-03-24T10:45:46;163390.16;;;18.31
71897;BMP280;59767;51.344;12.362;2023-03-24T10:48:53;163415.09;;;18.41
71897;BMP280;59767;51.344;12.362;2023-03-24T10:52:01;163409.88;;;18.39
71897;BMP280;59767;51.344;12.362;2023-03-24T10:55:15;163417.72;;;18.42
71897;BMP280;59767;51.344;12.362;2023-03-24T10:58:34;163428.25;;;18.46
71897;BMP280;59767;51.344;12.362;2023-03-24T11:01:38;163341.56;;;18.13
71897;BMP280;59767;51.344;12.362;2023-03-24T11:04:49;163177.53;;;17.50
71897;BMP280;59767;51.344;12.362;2023-03-24T11:07:56;163059.47;;;17.05
71897;BMP280;59767;51.344;12.362;2023-03-24T11:14:22;162871.84;;;16.34
71897;BMP280;59767;51.344;12.362;2023-03-24T11:17:28;162827.25;;;16.17
71897;BMP280;59767;51.344;12.362;2023-03-24T11:23:37;162738.09;;;15.83
71897;BMP280;59767;51.344;12.362;2023-03-24T11:27:00;162680.41;;;15.61
71897;BMP280;59767;51.344;12.362;2023-03-24T11:30:10;162622.69;;;15.39
71897;BMP280;59767;51.344;12.362;2023-03-24T11:33:22;162599.09;;;15.30
71897;BMP280;59767;51.344;12.362;2023-03-24T11:36:40;162592.53;;;15.27
71897;BMP280;59767;51.344;12.362;2023-03-24T11:43:18;162626.66;;;15.40
71897;BMP280;59767;51.344;12.362;2023-03-24T11:46:26;162624.03;;;15.39
71897;BMP280;59767;51.344;12.362;2023-03-24T11:49:32;162645.00;;;15.47
71897;BMP280;59767;51.344;12.362;2023-03-24T11:52:47;162672.50;;;15.58
71897;BMP280;59767;51.344;12.362;2023-03-24T11:55:55;162692.16;;;15.65
71897;BMP280;59767;51.344;12.362;2023-03-24T11:59:06;162646.31;;;15.48
71897;BMP280;59767;51.344;12.362;2023-03-24T12:02:23;162579.47;;;15.22
71897;BMP280;59767;51.344;12.362;2023-03-24T12:05:30;162562.41;;;15.16
71897;BMP280;59767;51.344;12.362;2023-03-24T12:09:11;162530.91;;;15.04
71897;BMP280;59767;51.344;12.362;2023-03-24T12:12:19;162530.91;;;15.04
71897;BMP280;59767;51.344;12.362;2023-03-24T12:19:00;162575.53;;;15.21
71897;BMP280;59767;51.344;12.362;2023-03-24T12:25:27;162542.69;;;15.08
71897;BMP280;59767;51.344;12.362;2023-03-24T12:57:16;162393.25;;;14.51
71897;BMP280;59767;51.344;12.362;2023-03-24T13:00:21;162348.72;;;14.34
71897;BMP280;59767;51.344;12.362;2023-03-24T13:03:29;162330.41;;;14.27
71897;BMP280;59767;51.344;12.362;2023-03-24T13:06:42;162304.19;;;14.17
71897;BMP280;59767;51.344;12.362;2023-03-24T13:10:04;162274.03;;;14.06
71897;BMP280;59767;51.344;12.362;2023-03-24T13:13:17;162300.25;;;14.16
71897;BMP280;59767;51.344;12.362;2023-03-24T13:16:23;162334.34;;;14.29
71897;BMP280;59767;51.344;12.362;2023-03-24T13:19:30;162350.06;;;14.35
71897;BMP280;59767;51.344;12.362;2023-03-24T13:22:36;162419.53;;;14.61
71897;BMP280;59767;51.344;12.362;2023-03-24T13:31:53;162350.06;;;14.35
71897;BMP280;59767;51.344;12.362;2023-03-24T13:35:02;162295.03;;;14.14
71897;BMP280;59767;51.344;12.362;2023-03-24T13:41:31;162243.91;;;13.94
71897;BMP280;59767;51.344;12.362;2023-03-24T13:44:37;162217.75;;;13.84
71897;BMP280;59767;51.344;12.362;2023-03-24T13:48:43;162224.25;;;13.87
71897;BMP280;59767;51.344;12.362;2023-03-24T13:51:23;162253.06;;;13.98
71897;BMP280;59767;51.344;12.362;2023-03-24T13:54:29;162263.59;;;14.02
71897;BMP280;59767;51.344;12.362;2023-03-24T13:57:35;162285.81;;;14.10
71897;BMP280;59767;51.344;12.362;2023-03-24T14:04:17;162310.75;;;14.20
71897;BMP280;59767;51.344;12.362;2023-03-24T14:10:37;162403.81;;;14.55
71897;BMP280;59767;51.344;12.362;2023-03-24T14:13:45;162339.56;;;14.31
71897;BMP280;59767;51.344;12.362;2023-03-24T14:23:18;162372.34;;;14.43
71897;BMP280;59767;51.344;12.362;2023-03-24T14:29:49;162295.03;;;14.14
71897;BMP280;59767;51.344;12.362;2023-03-24T14:32:54;162267.53;;;14.03
71897;BMP280;59767;51.344;12.362;2023-03-24T14:36:03;162295.03;;;14.14
71897;BMP280;59767;51.344;12.362;2023-03-24T14:45:51;162229.53;;;13.89
71897;BMP280;59767;51.344;12.362;2023-03-24T14:49:03;162247.84;;;13.96
71897;BMP280;59767;51.344;12.362;2023-03-24T14:52:11;162241.28;;;13.93
71897;BMP280;59767;51.344;12.362;2023-03-24T14:55:16;162271.44;;;14.05
71897;BMP280;59767;51.344;12.362;2023-03-24T14:58:24;162371.06;;;14.43
71897;BMP280;59767;51.344;12.362;2023-03-24T15:01:29;162481.13;;;14.85
71897;BMP280;59767;51.344;12.362;2023-03-24T15:04:36;162507.34;;;14.95
71897;BMP280;59767;51.344;12.362;2023-03-24T15:07:42;162487.69;;;14.87
71897;BMP280;59767;51.344;12.362;2023-03-24T15:11:06;162433.97;;;14.67
71897;BMP280;59767;51.344;12.362;2023-03-24T15:14:14;162365.78;;;14.41
71897;BMP280;59767;51.344;12.362;2023-03-24T15:17:21;162331.69;;;14.28
71897;BMP280;59767;51.344;12.362;2023-03-24T15:23:29;162340.91;;;14.31
71897;BMP280;59767;51.344;12.362;2023-03-24T15:26:33;162363.16;;;14.40
71897;BMP280;59767;51.344;12.362;2023-03-24T15:29:38;162377.56;;;14.45
71897;BMP280;59767;51.344;12.362;2023-03-24T15:32:43;162380.22;;;14.46
71897;BMP280;59767;51.344;12.362;2023-03-24T15:35:55;162386.75;;;14.49
71897;BMP280;59767;51.344;12.362;2023-03-24T15:39:00;162361.84;;;14.39
71897;BMP280;59767;51.344;12.362;2023-03-24T15:42:04;162357.94;;;14.38
71897;BMP280;59767;51.344;12.362;2023-03-24T15:45:13;162360.56;;;14.39
71897;BMP280;59767;51.344;12.362;2023-03-24T15:48:23;162386.75;;;14.49
71897;BMP280;59767;51.344;12.362;2023-03-24T15:54:55;162410.31;;;14.58
71897;BMP280;59767;51.344;12.362;2023-03-24T15:58:00;162410.31;;;14.58
71897;BMP280;59767;51.344;12.362;2023-03-24T16:01:05;162395.94;;;14.52
71897;BMP280;59767;51.344;12.362;2023-03-24T16:04:13;162365.78;;;14.41
71897;BMP280;59767;51.344;12.362;2023-03-24T16:07:25;162329.13;;;14.27
71897;BMP280;59767;51.344;12.362;2023-03-24T16:10:35;162325.19;;;14.25
71897;BMP280;59767;51.344;12.362;2023-03-24T16:13:42;162312.06;;;14.20
71897;BMP280;59767;51.344;12.362;2023-03-24T16:16:47;162300.25;;;14.16
71897;BMP280;59767;51.344;12.362;2023-03-24T16:19:52;162289.75;;;14.12
71897;BMP280;59767;51.344;12.362;2023-03-24T16:22:56;162274.03;;;14.06
71897;BMP280;59767;51.344;12.362;2023-03-24T16:26:00;162281.94;;;14.09
71897;BMP280;59767;51.344;12.362;2023-03-24T16:29:38;162287.16;;;14.11
71897;BMP280;59767;51.344;12.362;2023-03-24T16:32:34;162283.25;;;14.09
71897;BMP280;59767;51.344;12.362;2023-03-24T16:35:38;162263.59;;;14.02
71897;BMP280;59767;51.344;12.362;2023-03-24T16:38:43;162263.59;;;14.02
71897;BMP280;59767;51.344;12.362;2023-03-24T16:41:48;162247.84;;;13.96
71897;BMP280;59767;51.344;12.362;2023-03-24T16:44:52;162239.97;;;13.93
71897;BMP280;59767;51.344;12.362;2023-03-24T16:47:57;162232.13;;;13.90
71897;BMP280;59767;51.344;12.362;2023-03-24T16:51:00;162209.88;;;13.81
71897;BMP280;59767;51.344;12.362;2023-03-24T16:54:05;162186.28;;;13.72
71897;BMP280;59767;51.344;12.362;2023-03-24T16:57:09;162174.44;;;13.68
71897;BMP280;59767;51.344;12.362;2023-03-24T17:00:13;162171.91;;;13.67
71897;BMP280;59767;51.344;12.362;2023-03-24T17:03:17;162160.09;;;13.62
71897;BMP280;59767;51.344;12.362;2023-03-24T17:06:22;162143.03;;;13.56
71897;BMP280;59767;51.344;12.362;2023-03-24T17:09:27;162135.22;;;13.53
71897;BMP280;59767;51.344;12.362;2023-03-24T17:12:33;162135.22;;;13.53
71897;BMP280;59767;51.344;12.362;2023-03-24T17:15:36;162115.50;;;13.45
71897;BMP280;59767;51.344;12.362;2023-03-24T17:18:40;162108.97;;;13.43
71897;BMP280;59767;51.344;12.362;2023-03-24T17:22:19;162093.25;;;13.37
71897;BMP280;59767;51.344;12.362;2023-03-24T17:25:20;162114.22;;;13.45
71897;BMP280;59767;51.344;12.362;2023-03-24T17:28:25;162099.81;;;13.39
71897;BMP280;59767;51.344;12.362;2023-03-24T17:31:29;162082.78;;;13.33
71897;BMP280;59767;51.344;12.362;2023-03-24T17:34:34;162069.66;;;13.28
71897;BMP280;59767;51.344;12.362;2023-03-24T17:37:38;162063.13;;;13.25
71897;BMP280;59767;51.344;12.362;2023-03-24T17:40:42;162060.50;;;13.24
71897;BMP280;59767;51.344;12.362;2023-03-24T17:43:46;162043.47;;;13.18
71897;BMP280;59767;51.344;12.362;2023-03-24T17:46:51;162039.59;;;13.16
71897;BMP280;59767;51.344;12.362;2023-03-24T17:49:54;162039.59;;;13.16
71897;BMP280;59767;51.344;12.362;2023-03-24T17:52:59;162030.38;;;13.13
71897;BMP280;59767;51.344;12.362;2023-03-24T17:56:04;162014.69;;;13.07
71897;BMP280;59767;51.344;12.362;2023-03-24T17:59:10;161992.38;;;12.98
71897;BMP280;59767;51.344;12.362;2023-03-24T18:02:13;161995.00;;;12.99
71897;BMP280;59767;51.344;12.362;2023-03-24T18:05:18;161992.38;;;12.98
71897;BMP280;59767;51.344;12.362;2023-03-24T18:08:22;161980.63;;;12.94
71897;BMP280;59767;51.344;12.362;2023-03-24T18:11:26;161941.28;;;12.79
71897;BMP280;59767;51.344;12.362;2023-03-24T18:14:31;161928.19;;;12.74
71897;BMP280;59767;51.344;12.362;2023-03-24T18:17:35;161896.81;;;12.62
71897;BMP280;59767;51.344;12.362;2023-03-24T18:20:39;161869.34;;;12.51
71897;BMP280;59767;51.344;12.362;2023-03-24T18:23:43;161844.44;;;12.42
71897;BMP280;59767;51.344;12.362;2023-03-24T18:26:50;161811.69;;;12.29
71897;BMP280;59767;51.344;12.362;2023-03-24T18:29:54;161794.69;;;12.23
71897;BMP280;59767;51.344;12.362;2023-03-24T18:32:58;161773.75;;;12.15
71897;BMP280;59767;51.344;12.362;2023-03-24T18:36:04;161760.66;;;12.10
71897;BMP280;59767;51.344;12.362;2023-03-24T18:39:09;161754.06;;;12.07
71897;BMP280;59767;51.344;12.362;2023-03-24T18:42:14;161772.41;;;12.14
71897;BMP280;59767;51.344;12.362;2023-03-24T18:45:19;161747.53;;;12.05
71897;BMP280;59767;51.344;12.362;2023-03-24T18:48:22;161760.66;;;12.10
71897;BMP280;59767;51.344;12.362;2023-03-24T18:51:26;161750.13;;;12.06
71897;BMP280;59767;51.344;12.362;2023-03-24T18:54:30;161718.75;;;11.94
71897;BMP280;59767;51.344;12.362;2023-03-24T18:57:35;161703.06;;;11.88
71897;BMP280;59767;51.344;12.362;2023-03-24T19:00:46;161695.19;;;11.85
71897;BMP280;59767;51.344;12.362;2023-03-24T19:03:50;161678.19;;;11.78
71897;BMP280;59767;51.344;12.362;2023-03-24T19:06:55;161661.16;;;11.72
71897;BMP280;59767;51.344;12.362;2023-03-24T19:09:59;161659.81;;;11.71
71897;BMP280;59767;51.344;12.362;2023-03-24T19:13:03;161648.06;;;11.67
71897;BMP280;59767;51.344;12.362;2023-03-24T19:16:08;161629.72;;;11.60
71897;BMP280;59767;51.344;12.362;2023-03-24T19:19:13;161621.84;;;11.57
71897;BMP280;59767;51.344;12.362;2023-03-24T19:22:17;161604.84;;;11.50
71897;BMP280;59767;51.344;12.362;2023-03-24T19:25:24;161603.56;;;11.50
71897;BMP280;59767;51.344;12.362;2023-03-24T19:28:29;161603.56;;;11.50
71897;BMP280;59767;51.344;12.362;2023-03-24T19:31:33;161591.75;;;11.45
71897;BMP280;59767;51.344;12.362;2023-03-24T19:34:38;161572.16;;;11.38
71897;BMP280;59767;51.344;12.362;2023-03-24T19:37:42;161572.16;;;11.38
71897;BMP280;59767;51.344;12.362;2023-03-24T19:40:45;161583.91;;;11.42
71897;BMP280;59767;51.344;12.362;2023-03-24T19:43:49;161559.03;;;11.33
71897;BMP280;59767;51.344;12.362;2023-03-24T19:46:53;161552.53;;;11.30
71897;BMP280;59767;51.344;12.362;2023-03-24T19:49:57;161543.34;;;11.27
71897;BMP280;59767;51.344;12.362;2023-03-24T19:53:01;161525.03;;;11.20
71897;BMP280;59767;51.344;12.362;2023-03-24T19:56:05;161505.38;;;11.12
71897;BMP280;59767;51.344;12.362;2023-03-24T19:59:09;161504.09;;;11.12
71897;BMP280;59767;51.344;12.362;2023-03-24T20:02:14;161485.75;;;11.05